Accueil
METAR-TAF:

METAR-TAF

Aéroports :

Fairford, Angleterre

latitude: 51-41N, longitude: 001-47W, altitude: 87 m

Observation

Le bulletin a été fait il y a 1 heure et 5 minutes, à 07:58 UTC
Vent 5 kt de ouest/sud-ouest
Température 5°C
Humidité 75%
Pression 1021 hPa
Visibilité 10 km ou plus
Nuages fragmentés à une hauteur de 7000 ft

METAR: EGVA 270758Z AUTO 25005KT 9999 BKN070 05/01 A3014 RMK AO2 SLP213 T00450005 $

Heure: 10:03 (09:03 UTC)


TAF: absent

Observations et prévisions météorologiques de plus de 4000 aéroports (messages METAR et TAF).

Les stations disponibles sont représentées par des disques jaunes et rouges sur la carte.

Passer la souris dessus pour voir le nom de la station.

Cliquer dessus pour voir les observations et prévisions météorologiques.

Pour changer de carte: cliquez sur les boutons verts avec une croix noire pour zoomer, sur le bouton vert avec un tiret pour effectuer un zoom arrière, ou sur les flèches vertes pour les cartes adjacentes.


METAR-TAF: